You are not logged in, Click here to log in
ICAO: OMDB Country: 阿拉伯聯合大公國杜拜
Latitude: 25.2532 Longitude: 55.3657
Total Arrivals: 32 Total Departures: 30
Latest Arrival: EK527 (VOHS-OMDB)Jason. Li Latest Departure: FZ67 (OMDB-OKBK)Jason. Li
Scenery:
METAR : OMDB 241100Z 32010KT 300V360 CAVOK 35/16 Q1007 NOSIG

迪拜國際機場DXB